sensor_id;sensor_type;location;lat;lon;timestamp;P1;durP1;ratioP1;P2;durP2;ratioP2
32808;SDS011;19159;48.178;16.386;2024-03-02T00:02:24;52.90;;;43.35;;
32808;SDS011;19159;48.178;16.386;2024-03-02T00:04:50;57.85;;;44.50;;
32808;SDS011;19159;48.178;16.386;2024-03-02T00:07:16;55.60;;;42.50;;
32808;SDS011;19159;48.178;16.386;2024-03-02T00:09:42;58.10;;;44.22;;
32808;SDS011;19159;48.178;16.386;2024-03-02T00:12:08;59.63;;;44.53;;
32808;SDS011;19159;48.178;16.386;2024-03-02T00:14:36;56.17;;;43.33;;
32808;SDS011;19159;48.178;16.386;2024-03-02T00:17:02;56.28;;;43.67;;
32808;SDS011;19159;48.178;16.386;2024-03-02T00:19:28;57.90;;;44.85;;
32808;SDS011;19159;48.178;16.386;2024-03-02T00:21:54;52.28;;;41.33;;
32808;SDS011;19159;48.178;16.386;2024-03-02T00:24:21;59.25;;;45.10;;
32808;SDS011;19159;48.178;16.386;2024-03-02T00:26:57;55.28;;;42.97;;
32808;SDS011;19159;48.178;16.386;2024-03-02T00:29:22;55.75;;;42.63;;
32808;SDS011;19159;48.178;16.386;2024-03-02T00:31:49;53.03;;;41.60;;
32808;SDS011;19159;48.178;16.386;2024-03-02T00:34:15;55.05;;;41.67;;
32808;SDS011;19159;48.178;16.386;2024-03-02T00:36:42;52.97;;;43.05;;
32808;SDS011;19159;48.178;16.386;2024-03-02T00:39:08;49.35;;;39.85;;
32808;SDS011;19159;48.178;16.386;2024-03-02T00:41:33;50.78;;;41.63;;
32808;SDS011;19159;48.178;16.386;2024-03-02T00:44:06;54.13;;;43.72;;
32808;SDS011;19159;48.178;16.386;2024-03-02T00:46:35;59.88;;;45.10;;
32808;SDS011;19159;48.178;16.386;2024-03-02T00:49:02;56.33;;;42.40;;
32808;SDS011;19159;48.178;16.386;2024-03-02T00:51:30;57.72;;;44.30;;
32808;SDS011;19159;48.178;16.386;2024-03-02T00:54:15;53.13;;;42.85;;
32808;SDS011;19159;48.178;16.386;2024-03-02T00:56:44;56.17;;;41.20;;
32808;SDS011;19159;48.178;16.386;2024-03-02T00:59:10;56.30;;;45.20;;
32808;SDS011;19159;48.178;16.386;2024-03-02T01:01:36;54.95;;;42.83;;
32808;SDS011;19159;48.178;16.386;2024-03-02T01:04:01;54.70;;;42.20;;
32808;SDS011;19159;48.178;16.386;2024-03-02T01:06:27;53.92;;;42.88;;
32808;SDS011;19159;48.178;16.386;2024-03-02T01:08:53;52.20;;;40.60;;
32808;SDS011;19159;48.178;16.386;2024-03-02T01:11:19;57.85;;;44.08;;
32808;SDS011;19159;48.178;16.386;2024-03-02T01:13:47;54.58;;;44.55;;
32808;SDS011;19159;48.178;16.386;2024-03-02T01:16:13;57.00;;;44.92;;
32808;SDS011;19159;48.178;16.386;2024-03-02T01:18:39;54.22;;;42.50;;
32808;SDS011;19159;48.178;16.386;2024-03-02T01:21:04;54.47;;;41.67;;
32808;SDS011;19159;48.178;16.386;2024-03-02T01:23:30;52.42;;;41.00;;
32808;SDS011;19159;48.178;16.386;2024-03-02T01:25:56;56.70;;;42.83;;
32808;SDS011;19159;48.178;16.386;2024-03-02T01:28:21;60.55;;;46.60;;
32808;SDS011;19159;48.178;16.386;2024-03-02T01:30:47;62.00;;;45.85;;
32808;SDS011;19159;48.178;16.386;2024-03-02T01:33:14;58.92;;;44.72;;
32808;SDS011;19159;48.178;16.386;2024-03-02T01:35:40;58.72;;;44.10;;
32808;SDS011;19159;48.178;16.386;2024-03-02T01:38:05;60.80;;;45.03;;
32808;SDS011;19159;48.178;16.386;2024-03-02T01:40:32;56.58;;;45.10;;
32808;SDS011;19159;48.178;16.386;2024-03-02T01:42:59;55.55;;;42.47;;
32808;SDS011;19159;48.178;16.386;2024-03-02T01:45:24;60.22;;;44.58;;
32808;SDS011;19159;48.178;16.386;2024-03-02T01:47:50;55.75;;;44.17;;
32808;SDS011;19159;48.178;16.386;2024-03-02T01:50:16;65.57;;;47.10;;
32808;SDS011;19159;48.178;16.386;2024-03-02T01:53:07;67.13;;;47.67;;
32808;SDS011;19159;48.178;16.386;2024-03-02T01:55:34;59.28;;;45.15;;
32808;SDS011;19159;48.178;16.386;2024-03-02T01:58:00;61.72;;;45.08;;
32808;SDS011;19159;48.178;16.386;2024-03-02T02:00:26;62.97;;;46.40;;
32808;SDS011;19159;48.178;16.386;2024-03-02T02:02:52;62.63;;;44.80;;
32808;SDS011;19159;48.178;16.386;2024-03-02T02:05:18;58.28;;;43.50;;
32808;SDS011;19159;48.178;16.386;2024-03-02T02:07:44;61.38;;;44.03;;
32808;SDS011;19159;48.178;16.386;2024-03-02T02:10:10;63.78;;;45.03;;
32808;SDS011;19159;48.178;16.386;2024-03-02T02:12:36;57.40;;;42.72;;
32808;SDS011;19159;48.178;16.386;2024-03-02T02:15:02;58.25;;;42.72;;
32808;SDS011;19159;48.178;16.386;2024-03-02T02:17:29;57.85;;;42.75;;
32808;SDS011;19159;48.178;16.386;2024-03-02T02:19:54;59.22;;;44.22;;
32808;SDS011;19159;48.178;16.386;2024-03-02T02:22:20;53.53;;;41.97;;
32808;SDS011;19159;48.178;16.386;2024-03-02T02:24:45;53.42;;;40.78;;
32808;SDS011;19159;48.178;16.386;2024-03-02T02:27:11;54.70;;;40.15;;
32808;SDS011;19159;48.178;16.386;2024-03-02T02:29:40;53.50;;;39.65;;
32808;SDS011;19159;48.178;16.386;2024-03-02T02:32:06;52.45;;;39.92;;
32808;SDS011;19159;48.178;16.386;2024-03-02T02:34:31;50.88;;;39.42;;
32808;SDS011;19159;48.178;16.386;2024-03-02T02:36:57;56.55;;;41.17;;
32808;SDS011;19159;48.178;16.386;2024-03-02T02:39:23;50.67;;;39.20;;
32808;SDS011;19159;48.178;16.386;2024-03-02T02:41:48;49.92;;;39.42;;
32808;SDS011;19159;48.178;16.386;2024-03-02T02:44:14;49.88;;;39.03;;
32808;SDS011;19159;48.178;16.386;2024-03-02T02:46:40;52.67;;;40.15;;
32808;SDS011;19159;48.178;16.386;2024-03-02T02:49:06;51.65;;;39.53;;
32808;SDS011;19159;48.178;16.386;2024-03-02T02:51:32;52.33;;;39.45;;
32808;SDS011;19159;48.178;16.386;2024-03-02T02:53:58;48.60;;;39.40;;
32808;SDS011;19159;48.178;16.386;2024-03-02T02:56:24;49.60;;;37.83;;
32808;SDS011;19159;48.178;16.386;2024-03-02T02:58:49;47.97;;;37.28;;
32808;SDS011;19159;48.178;16.386;2024-03-02T03:01:15;46.47;;;36.33;;
32808;SDS011;19159;48.178;16.386;2024-03-02T03:03:44;49.28;;;37.28;;
32808;SDS011;19159;48.178;16.386;2024-03-02T03:06:10;48.42;;;35.55;;
32808;SDS011;19159;48.178;16.386;2024-03-02T03:08:36;43.17;;;35.28;;
32808;SDS011;19159;48.178;16.386;2024-03-02T03:11:03;44.70;;;34.80;;
32808;SDS011;19159;48.178;16.386;2024-03-02T03:13:30;45.80;;;35.53;;
32808;SDS011;19159;48.178;16.386;2024-03-02T03:15:59;48.42;;;37.92;;
32808;SDS011;19159;48.178;16.386;2024-03-02T03:18:25;43.70;;;33.97;;
32808;SDS011;19159;48.178;16.386;2024-03-02T03:20:50;45.95;;;35.50;;
32808;SDS011;19159;48.178;16.386;2024-03-02T03:23:16;48.78;;;37.00;;
32808;SDS011;19159;48.178;16.386;2024-03-02T03:25:42;48.50;;;36.55;;
32808;SDS011;19159;48.178;16.386;2024-03-02T03:28:08;50.45;;;36.88;;
32808;SDS011;19159;48.178;16.386;2024-03-02T03:30:37;46.20;;;36.22;;
32808;SDS011;19159;48.178;16.386;2024-03-02T03:33:04;51.05;;;37.33;;
32808;SDS011;19159;48.178;16.386;2024-03-02T03:35:33;48.97;;;37.28;;
32808;SDS011;19159;48.178;16.386;2024-03-02T03:37:59;49.25;;;39.50;;
32808;SDS011;19159;48.178;16.386;2024-03-02T03:40:25;47.78;;;37.20;;
32808;SDS011;19159;48.178;16.386;2024-03-02T03:42:51;44.92;;;35.17;;
32808;SDS011;19159;48.178;16.386;2024-03-02T03:45:17;53.97;;;39.35;;
32808;SDS011;19159;48.178;16.386;2024-03-02T03:47:42;51.03;;;37.75;;
32808;SDS011;19159;48.178;16.386;2024-03-02T03:50:08;48.35;;;36.05;;
32808;SDS011;19159;48.178;16.386;2024-03-02T03:52:34;51.38;;;39.03;;
32808;SDS011;19159;48.178;16.386;2024-03-02T03:55:00;47.83;;;38.70;;
32808;SDS011;19159;48.178;16.386;2024-03-02T03:57:26;50.42;;;38.35;;
32808;SDS011;19159;48.178;16.386;2024-03-02T03:59:52;52.25;;;39.65;;
32808;SDS011;19159;48.178;16.386;2024-03-02T04:02:18;58.35;;;41.78;;
32808;SDS011;19159;48.178;16.386;2024-03-02T04:04:44;48.90;;;38.72;;
32808;SDS011;19159;48.178;16.386;2024-03-02T04:07:10;49.58;;;36.95;;
32808;SDS011;19159;48.178;16.386;2024-03-02T04:09:36;48.00;;;37.60;;
32808;SDS011;19159;48.178;16.386;2024-03-02T04:12:01;48.90;;;38.08;;
32808;SDS011;19159;48.178;16.386;2024-03-02T04:14:27;51.83;;;38.15;;
32808;SDS011;19159;48.178;16.386;2024-03-02T04:16:53;48.13;;;38.65;;
32808;SDS011;19159;48.178;16.386;2024-03-02T04:19:18;50.53;;;38.45;;
32808;SDS011;19159;48.178;16.386;2024-03-02T04:21:44;48.25;;;38.47;;
32808;SDS011;19159;48.178;16.386;2024-03-02T04:24:10;53.25;;;40.00;;
32808;SDS011;19159;48.178;16.386;2024-03-02T04:26:35;52.00;;;37.70;;
32808;SDS011;19159;48.178;16.386;2024-03-02T04:29:01;47.55;;;37.10;;
32808;SDS011;19159;48.178;16.386;2024-03-02T04:31:27;53.58;;;39.63;;
32808;SDS011;19159;48.178;16.386;2024-03-02T04:33:52;50.72;;;37.92;;
32808;SDS011;19159;48.178;16.386;2024-03-02T04:36:19;53.05;;;39.88;;
32808;SDS011;19159;48.178;16.386;2024-03-02T04:38:45;56.38;;;40.60;;
32808;SDS011;19159;48.178;16.386;2024-03-02T04:41:10;55.67;;;40.42;;
32808;SDS011;19159;48.178;16.386;2024-03-02T04:43:36;191.93;;;45.45;;
32808;SDS011;19159;48.178;16.386;2024-03-02T04:46:01;104.80;;;42.55;;
32808;SDS011;19159;48.178;16.386;2024-03-02T04:48:27;193.43;;;47.50;;
32808;SDS011;19159;48.178;16.386;2024-03-02T04:50:53;99.18;;;42.38;;
32808;SDS011;19159;48.178;16.386;2024-03-02T04:53:19;159.93;;;47.13;;
32808;SDS011;19159;48.178;16.386;2024-03-02T04:55:44;65.93;;;43.20;;
32808;SDS011;19159;48.178;16.386;2024-03-02T04:58:19;222.65;;;49.22;;
32808;SDS011;19159;48.178;16.386;2024-03-02T05:00:44;377.40;;;51.53;;
32808;SDS011;19159;48.178;16.386;2024-03-02T05:03:11;143.85;;;43.72;;
32808;SDS011;19159;48.178;16.386;2024-03-02T05:05:38;345.08;;;47.47;;
32808;SDS011;19159;48.178;16.386;2024-03-02T05:08:04;153.73;;;41.45;;
32808;SDS011;19159;48.178;16.386;2024-03-02T05:10:29;198.15;;;44.40;;
32808;SDS011;19159;48.178;16.386;2024-03-02T05:12:55;161.43;;;41.17;;
32808;SDS011;19159;48.178;16.386;2024-03-02T05:15:24;137.32;;;37.85;;
32808;SDS011;19159;48.178;16.386;2024-03-02T05:17:50;82.68;;;34.40;;
32808;SDS011;19159;48.178;16.386;2024-03-02T05:20:16;111.38;;;34.95;;
32808;SDS011;19159;48.178;16.386;2024-03-02T05:22:42;253.55;;;38.50;;
32808;SDS011;19159;48.178;16.386;2024-03-02T05:25:07;98.28;;;29.92;;
32808;SDS011;19159;48.178;16.386;2024-03-02T05:27:34;105.32;;;28.60;;
32808;SDS011;19159;48.178;16.386;2024-03-02T05:30:00;114.18;;;30.23;;
32808;SDS011;19159;48.178;16.386;2024-03-02T05:32:26;63.10;;;27.40;;
32808;SDS011;19159;48.178;16.386;2024-03-02T05:34:52;84.35;;;28.20;;
32808;SDS011;19159;48.178;16.386;2024-03-02T05:37:18;73.72;;;27.90;;
32808;SDS011;19159;48.178;16.386;2024-03-02T05:39:44;30.25;;;26.30;;
32808;SDS011;19159;48.178;16.386;2024-03-02T05:42:10;29.75;;;26.58;;
32808;SDS011;19159;48.178;16.386;2024-03-02T05:44:36;154.18;;;32.97;;
32808;SDS011;19159;48.178;16.386;2024-03-02T05:47:02;35.58;;;28.40;;
32808;SDS011;19159;48.178;16.386;2024-03-02T05:49:28;108.13;;;33.75;;
32808;SDS011;19159;48.178;16.386;2024-03-02T05:51:54;179.43;;;36.70;;
32808;SDS011;19159;48.178;16.386;2024-03-02T05:54:20;48.92;;;30.98;;
32808;SDS011;19159;48.178;16.386;2024-03-02T05:56:46;196.82;;;37.10;;
32808;SDS011;19159;48.178;16.386;2024-03-02T05:59:12;43.03;;;30.70;;
32808;SDS011;19159;48.178;16.386;2024-03-02T06:01:47;234.60;;;39.22;;
32808;SDS011;19159;48.178;16.386;2024-03-02T06:04:15;270.25;;;42.80;;
32808;SDS011;19159;48.178;16.386;2024-03-02T06:06:41;185.27;;;38.95;;
32808;SDS011;19159;48.178;16.386;2024-03-02T06:09:07;421.75;;;55.42;;
32808;SDS011;19159;48.178;16.386;2024-03-02T06:11:36;321.50;;;46.88;;
32808;SDS011;19159;48.178;16.386;2024-03-02T06:14:02;311.40;;;45.25;;
32808;SDS011;19159;48.178;16.386;2024-03-02T06:16:28;190.05;;;42.17;;
32808;SDS011;19159;48.178;16.386;2024-03-02T06:18:55;245.55;;;44.33;;
32808;SDS011;19159;48.178;16.386;2024-03-02T06:21:22;249.70;;;45.22;;
32808;SDS011;19159;48.178;16.386;2024-03-02T06:23:52;298.67;;;45.60;;
32808;SDS011;19159;48.178;16.386;2024-03-02T06:26:18;447.23;;;56.22;;
32808;SDS011;19159;48.178;16.386;2024-03-02T06:28:44;92.10;;;38.72;;
32808;SDS011;19159;48.178;16.386;2024-03-02T06:31:11;68.93;;;37.45;;
32808;SDS011;19159;48.178;16.386;2024-03-02T06:33:38;367.08;;;51.28;;
32808;SDS011;19159;48.178;16.386;2024-03-02T06:36:05;291.88;;;46.95;;
32808;SDS011;19159;48.178;16.386;2024-03-02T06:38:33;339.27;;;50.25;;
32808;SDS011;19159;48.178;16.386;2024-03-02T06:40:59;228.60;;;43.38;;
32808;SDS011;19159;48.178;16.386;2024-03-02T06:43:25;282.75;;;45.95;;
32808;SDS011;19159;48.178;16.386;2024-03-02T06:45:50;166.45;;;42.55;;
32808;SDS011;19159;48.178;16.386;2024-03-02T06:48:16;398.63;;;52.00;;
32808;SDS011;19159;48.178;16.386;2024-03-02T06:50:45;385.48;;;50.22;;
32808;SDS011;19159;48.178;16.386;2024-03-02T06:53:12;109.25;;;40.17;;
32808;SDS011;19159;48.178;16.386;2024-03-02T06:55:42;246.77;;;44.58;;
32808;SDS011;19159;48.178;16.386;2024-03-02T06:58:09;281.25;;;47.13;;
32808;SDS011;19159;48.178;16.386;2024-03-02T07:00:35;88.32;;;39.97;;
32808;SDS011;19159;48.178;16.386;2024-03-02T07:03:01;171.15;;;42.38;;
32808;SDS011;19159;48.178;16.386;2024-03-02T07:05:27;59.03;;;37.20;;
32808;SDS011;19159;48.178;16.386;2024-03-02T07:07:53;157.27;;;40.58;;
32808;SDS011;19159;48.178;16.386;2024-03-02T07:10:18;65.20;;;38.25;;
32808;SDS011;19159;48.178;16.386;2024-03-02T07:12:44;237.48;;;42.22;;
32808;SDS011;19159;48.178;16.386;2024-03-02T07:15:09;131.27;;;40.33;;
32808;SDS011;19159;48.178;16.386;2024-03-02T07:17:53;194.13;;;40.15;;
32808;SDS011;19159;48.178;16.386;2024-03-02T07:20:21;99.72;;;36.28;;
32808;SDS011;19159;48.178;16.386;2024-03-02T07:22:47;131.90;;;35.35;;
32808;SDS011;19159;48.178;16.386;2024-03-02T07:25:13;109.88;;;36.17;;
32808;SDS011;19159;48.178;16.386;2024-03-02T07:27:39;336.00;;;49.65;;
32808;SDS011;19159;48.178;16.386;2024-03-02T07:30:06;252.05;;;41.67;;
32808;SDS011;19159;48.178;16.386;2024-03-02T07:32:32;111.85;;;36.50;;
32808;SDS011;19159;48.178;16.386;2024-03-02T07:34:57;124.38;;;36.83;;
32808;SDS011;19159;48.178;16.386;2024-03-02T07:37:23;154.45;;;38.25;;
32808;SDS011;19159;48.178;16.386;2024-03-02T07:39:50;54.38;;;32.45;;
32808;SDS011;19159;48.178;16.386;2024-03-02T07:42:16;156.90;;;37.30;;
32808;SDS011;19159;48.178;16.386;2024-03-02T07:44:43;48.10;;;32.53;;
32808;SDS011;19159;48.178;16.386;2024-03-02T07:47:10;56.50;;;31.98;;
32808;SDS011;19159;48.178;16.386;2024-03-02T07:49:36;51.78;;;31.40;;
32808;SDS011;19159;48.178;16.386;2024-03-02T07:52:02;43.30;;;31.88;;
32808;SDS011;19159;48.178;16.386;2024-03-02T07:54:30;39.63;;;29.27;;
32808;SDS011;19159;48.178;16.386;2024-03-02T07:56:55;60.47;;;31.40;;
32808;SDS011;19159;48.178;16.386;2024-03-02T07:59:21;34.95;;;30.20;;
32808;SDS011;19159;48.178;16.386;2024-03-02T08:01:47;42.67;;;29.70;;
32808;SDS011;19159;48.178;16.386;2024-03-02T08:04:15;38.10;;;29.15;;
32808;SDS011;19159;48.178;16.386;2024-03-02T08:06:40;38.53;;;30.10;;
32808;SDS011;19159;48.178;16.386;2024-03-02T08:09:06;33.90;;;29.02;;
32808;SDS011;19159;48.178;16.386;2024-03-02T08:11:35;42.88;;;30.38;;
32808;SDS011;19159;48.178;16.386;2024-03-02T08:14:01;29.50;;;26.02;;
32808;SDS011;19159;48.178;16.386;2024-03-02T08:16:26;35.78;;;29.30;;
32808;SDS011;19159;48.178;16.386;2024-03-02T08:18:52;31.13;;;27.10;;
32808;SDS011;19159;48.178;16.386;2024-03-02T08:21:18;31.25;;;26.80;;
32808;SDS011;19159;48.178;16.386;2024-03-02T08:23:44;33.47;;;26.83;;
32808;SDS011;19159;48.178;16.386;2024-03-02T08:26:10;30.27;;;26.30;;
32808;SDS011;19159;48.178;16.386;2024-03-02T08:28:36;28.95;;;24.45;;
32808;SDS011;19159;48.178;16.386;2024-03-02T08:31:03;34.80;;;27.15;;
32808;SDS011;19159;48.178;16.386;2024-03-02T08:33:29;32.28;;;27.52;;
32808;SDS011;19159;48.178;16.386;2024-03-02T08:35:55;31.15;;;27.58;;
32808;SDS011;19159;48.178;16.386;2024-03-02T08:38:21;28.30;;;25.25;;
32808;SDS011;19159;48.178;16.386;2024-03-02T08:40:46;28.77;;;25.00;;
32808;SDS011;19159;48.178;16.386;2024-03-02T08:43:12;29.40;;;26.05;;
32808;SDS011;19159;48.178;16.386;2024-03-02T08:45:38;31.50;;;27.05;;
32808;SDS011;19159;48.178;16.386;2024-03-02T08:48:05;34.70;;;28.77;;
32808;SDS011;19159;48.178;16.386;2024-03-02T08:50:33;34.22;;;27.83;;
32808;SDS011;19159;48.178;16.386;2024-03-02T08:52:59;33.78;;;28.50;;
32808;SDS011;19159;48.178;16.386;2024-03-02T08:55:25;34.20;;;28.67;;
32808;SDS011;19159;48.178;16.386;2024-03-02T08:57:50;33.80;;;27.83;;
32808;SDS011;19159;48.178;16.386;2024-03-02T09:00:16;30.85;;;27.33;;
32808;SDS011;19159;48.178;16.386;2024-03-02T09:02:43;33.08;;;26.63;;
32808;SDS011;19159;48.178;16.386;2024-03-02T09:05:09;32.10;;;27.60;;
32808;SDS011;19159;48.178;16.386;2024-03-02T09:07:35;33.85;;;27.55;;
32808;SDS011;19159;48.178;16.386;2024-03-02T09:10:03;37.83;;;30.30;;
32808;SDS011;19159;48.178;16.386;2024-03-02T09:12:30;33.42;;;28.30;;
32808;SDS011;19159;48.178;16.386;2024-03-02T09:14:55;36.67;;;30.38;;
32808;SDS011;19159;48.178;16.386;2024-03-02T09:17:22;31.52;;;28.13;;
32808;SDS011;19159;48.178;16.386;2024-03-02T09:19:48;37.95;;;30.48;;
32808;SDS011;19159;48.178;16.386;2024-03-02T09:22:13;37.70;;;31.60;;
32808;SDS011;19159;48.178;16.386;2024-03-02T09:24:39;41.60;;;32.97;;
32808;SDS011;19159;48.178;16.386;2024-03-02T09:27:05;39.75;;;31.33;;
32808;SDS011;19159;48.178;16.386;2024-03-02T09:29:30;34.65;;;30.55;;
32808;SDS011;19159;48.178;16.386;2024-03-02T09:31:56;39.85;;;32.58;;
32808;SDS011;19159;48.178;16.386;2024-03-02T09:34:22;41.38;;;33.70;;
32808;SDS011;19159;48.178;16.386;2024-03-02T09:36:48;43.45;;;35.25;;
32808;SDS011;19159;48.178;16.386;2024-03-02T09:39:13;43.13;;;35.10;;
32808;SDS011;19159;48.178;16.386;2024-03-02T09:41:39;43.00;;;35.15;;
32808;SDS011;19159;48.178;16.386;2024-03-02T09:44:05;43.70;;;35.35;;
32808;SDS011;19159;48.178;16.386;2024-03-02T09:46:31;50.85;;;39.58;;
32808;SDS011;19159;48.178;16.386;2024-03-02T09:48:57;47.63;;;37.78;;
32808;SDS011;19159;48.178;16.386;2024-03-02T09:51:23;49.08;;;37.63;;
32808;SDS011;19159;48.178;16.386;2024-03-02T09:53:49;50.45;;;39.28;;
32808;SDS011;19159;48.178;16.386;2024-03-02T09:56:15;47.25;;;38.40;;
32808;SDS011;19159;48.178;16.386;2024-03-02T09:58:41;44.70;;;38.13;;
32808;SDS011;19159;48.178;16.386;2024-03-02T10:01:08;50.25;;;39.90;;
32808;SDS011;19159;48.178;16.386;2024-03-02T10:03:35;47.35;;;38.60;;
32808;SDS011;19159;48.178;16.386;2024-03-02T10:08:50;46.80;;;39.17;;
32808;SDS011;19159;48.178;16.386;2024-03-02T10:11:34;51.83;;;39.80;;
32808;SDS011;19159;48.178;16.386;2024-03-02T10:14:11;48.58;;;40.33;;
32808;SDS011;19159;48.178;16.386;2024-03-02T10:16:39;47.63;;;39.28;;
32808;SDS011;19159;48.178;16.386;2024-03-02T10:19:18;48.13;;;38.75;;
32808;SDS011;19159;48.178;16.386;2024-03-02T10:21:48;44.20;;;36.47;;
32808;SDS011;19159;48.178;16.386;2024-03-02T10:24:19;44.85;;;37.28;;
32808;SDS011;19159;48.178;16.386;2024-03-02T10:26:46;47.13;;;38.15;;
32808;SDS011;19159;48.178;16.386;2024-03-02T10:29:12;48.55;;;37.38;;
32808;SDS011;19159;48.178;16.386;2024-03-02T10:31:39;43.47;;;36.72;;
32808;SDS011;19159;48.178;16.386;2024-03-02T10:34:06;49.08;;;37.58;;
32808;SDS011;19159;48.178;16.386;2024-03-02T10:36:33;44.97;;;36.97;;
32808;SDS011;19159;48.178;16.386;2024-03-02T10:39:03;45.30;;;37.78;;
32808;SDS011;19159;48.178;16.386;2024-03-02T10:41:32;42.80;;;37.13;;
32808;SDS011;19159;48.178;16.386;2024-03-02T10:43:59;42.92;;;36.42;;
32808;SDS011;19159;48.178;16.386;2024-03-02T10:46:35;45.45;;;36.83;;
32808;SDS011;19159;48.178;16.386;2024-03-02T10:49:02;44.60;;;35.95;;
32808;SDS011;19159;48.178;16.386;2024-03-02T10:51:29;42.08;;;35.22;;
32808;SDS011;19159;48.178;16.386;2024-03-02T10:53:57;42.38;;;35.63;;
32808;SDS011;19159;48.178;16.386;2024-03-02T11:01:47;40.78;;;34.50;;
32808;SDS011;19159;48.178;16.386;2024-03-02T11:04:16;42.47;;;35.38;;
32808;SDS011;19159;48.178;16.386;2024-03-02T11:06:52;42.78;;;36.47;;
32808;SDS011;19159;48.178;16.386;2024-03-02T11:09:25;39.83;;;34.35;;
32808;SDS011;19159;48.178;16.386;2024-03-02T11:15:01;38.28;;;34.08;;
32808;SDS011;19159;48.178;16.386;2024-03-02T11:17:31;41.85;;;34.72;;
32808;SDS011;19159;48.178;16.386;2024-03-02T11:19:57;40.00;;;34.08;;
32808;SDS011;19159;48.178;16.386;2024-03-02T11:22:23;43.97;;;35.75;;
32808;SDS011;19159;48.178;16.386;2024-03-02T11:24:50;46.20;;;36.28;;
32808;SDS011;19159;48.178;16.386;2024-03-02T11:30:55;44.88;;;37.13;;
32808;SDS011;19159;48.178;16.386;2024-03-02T11:32:56;45.17;;;36.25;;
32808;SDS011;19159;48.178;16.386;2024-03-02T11:35:24;44.95;;;38.13;;
32808;SDS011;19159;48.178;16.386;2024-03-02T11:37:56;46.28;;;37.78;;
32808;SDS011;19159;48.178;16.386;2024-03-02T11:40:24;43.05;;;36.88;;
32808;SDS011;19159;48.178;16.386;2024-03-02T11:42:50;46.53;;;38.53;;
32808;SDS011;19159;48.178;16.386;2024-03-02T11:45:17;44.45;;;37.70;;
32808;SDS011;19159;48.178;16.386;2024-03-02T11:47:51;43.03;;;36.83;;
32808;SDS011;19159;48.178;16.386;2024-03-02T11:50:30;47.80;;;37.42;;
32808;SDS011;19159;48.178;16.386;2024-03-02T11:53:02;44.55;;;37.47;;
32808;SDS011;19159;48.178;16.386;2024-03-02T11:55:36;44.47;;;38.15;;
32808;SDS011;19159;48.178;16.386;2024-03-02T11:58:06;45.50;;;38.33;;
32808;SDS011;19159;48.178;16.386;2024-03-02T12:00:32;43.53;;;37.50;;
32808;SDS011;19159;48.178;16.386;2024-03-02T12:03:02;44.85;;;38.75;;
32808;SDS011;19159;48.178;16.386;2024-03-02T12:05:28;45.83;;;39.35;;
32808;SDS011;19159;48.178;16.386;2024-03-02T12:08:05;44.63;;;37.58;;
32808;SDS011;19159;48.178;16.386;2024-03-02T12:10:32;49.80;;;39.00;;
32808;SDS011;19159;48.178;16.386;2024-03-02T12:12:59;46.47;;;38.90;;
32808;SDS011;19159;48.178;16.386;2024-03-02T12:15:26;46.95;;;39.38;;
32808;SDS011;19159;48.178;16.386;2024-03-02T12:17:57;44.70;;;38.67;;
32808;SDS011;19159;48.178;16.386;2024-03-02T12:20:24;45.42;;;39.13;;
32808;SDS011;19159;48.178;16.386;2024-03-02T12:22:52;45.17;;;37.53;;
32808;SDS011;19159;48.178;16.386;2024-03-02T12:25:19;43.35;;;36.67;;
32808;SDS011;19159;48.178;16.386;2024-03-02T12:27:46;46.50;;;38.28;;
32808;SDS011;19159;48.178;16.386;2024-03-02T12:30:14;43.75;;;36.30;;
32808;SDS011;19159;48.178;16.386;2024-03-02T12:32:41;40.00;;;35.60;;
32808;SDS011;19159;48.178;16.386;2024-03-02T12:35:07;40.75;;;35.42;;
32808;SDS011;19159;48.178;16.386;2024-03-02T12:37:41;43.00;;;36.03;;
32808;SDS011;19159;48.178;16.386;2024-03-02T12:40:15;41.53;;;36.20;;
32808;SDS011;19159;48.178;16.386;2024-03-02T12:42:44;40.75;;;34.67;;
32808;SDS011;19159;48.178;16.386;2024-03-02T12:45:11;40.15;;;34.35;;
32808;SDS011;19159;48.178;16.386;2024-03-02T12:47:39;43.10;;;35.45;;
32808;SDS011;19159;48.178;16.386;2024-03-02T12:50:05;38.53;;;34.35;;
32808;SDS011;19159;48.178;16.386;2024-03-02T12:52:32;36.88;;;32.88;;
32808;SDS011;19159;48.178;16.386;2024-03-02T12:54:59;38.22;;;33.35;;
32808;SDS011;19159;48.178;16.386;2024-03-02T12:57:28;37.30;;;31.88;;
32808;SDS011;19159;48.178;16.386;2024-03-02T13:00:00;36.20;;;32.22;;
32808;SDS011;19159;48.178;16.386;2024-03-02T13:02:33;37.55;;;33.08;;
32808;SDS011;19159;48.178;16.386;2024-03-02T13:05:00;34.58;;;30.77;;
32808;SDS011;19159;48.178;16.386;2024-03-02T13:07:26;36.38;;;31.08;;
32808;SDS011;19159;48.178;16.386;2024-03-02T13:09:52;37.72;;;31.25;;
32808;SDS011;19159;48.178;16.386;2024-03-02T13:12:22;36.85;;;30.85;;
32808;SDS011;19159;48.178;16.386;2024-03-02T13:14:49;35.10;;;30.55;;
32808;SDS011;19159;48.178;16.386;2024-03-02T13:17:18;36.75;;;29.63;;
32808;SDS011;19159;48.178;16.386;2024-03-02T13:20:18;36.50;;;31.02;;
32808;SDS011;19159;48.178;16.386;2024-03-02T13:22:39;33.15;;;29.55;;
32808;SDS011;19159;48.178;16.386;2024-03-02T13:25:05;35.75;;;29.92;;
32808;SDS011;19159;48.178;16.386;2024-03-02T13:27:31;33.45;;;27.92;;
32808;SDS011;19159;48.178;16.386;2024-03-02T13:29:57;32.25;;;27.90;;
32808;SDS011;19159;48.178;16.386;2024-03-02T13:32:23;35.03;;;29.60;;
32808;SDS011;19159;48.178;16.386;2024-03-02T13:34:50;30.95;;;27.58;;
32808;SDS011;19159;48.178;16.386;2024-03-02T13:37:16;34.28;;;29.63;;
32808;SDS011;19159;48.178;16.386;2024-03-02T13:39:42;33.03;;;29.50;;
32808;SDS011;19159;48.178;16.386;2024-03-02T13:42:11;33.13;;;29.42;;
32808;SDS011;19159;48.178;16.386;2024-03-02T13:44:40;31.48;;;28.08;;
32808;SDS011;19159;48.178;16.386;2024-03-02T13:47:09;31.25;;;27.88;;
32808;SDS011;19159;48.178;16.386;2024-03-02T13:49:34;42.92;;;28.02;;
32808;SDS011;19159;48.178;16.386;2024-03-02T13:52:04;32.50;;;27.67;;
32808;SDS011;19159;48.178;16.386;2024-03-02T13:54:42;33.38;;;27.33;;
32808;SDS011;19159;48.178;16.386;2024-03-02T13:57:09;33.45;;;29.00;;
32808;SDS011;19159;48.178;16.386;2024-03-02T13:59:36;33.05;;;29.25;;
32808;SDS011;19159;48.178;16.386;2024-03-02T14:02:03;34.53;;;29.33;;
32808;SDS011;19159;48.178;16.386;2024-03-02T14:04:31;34.08;;;30.15;;
32808;SDS011;19159;48.178;16.386;2024-03-02T14:07:00;31.65;;;28.23;;
32808;SDS011;19159;48.178;16.386;2024-03-02T14:09:26;32.90;;;29.35;;
32808;SDS011;19159;48.178;16.386;2024-03-02T14:11:53;36.15;;;30.15;;
32808;SDS011;19159;48.178;16.386;2024-03-02T14:14:19;32.97;;;28.90;;
32808;SDS011;19159;48.178;16.386;2024-03-02T14:16:45;34.95;;;29.60;;
32808;SDS011;19159;48.178;16.386;2024-03-02T14:19:11;33.97;;;30.00;;
32808;SDS011;19159;48.178;16.386;2024-03-02T14:21:37;34.28;;;30.67;;